Time;durP1;ratioP1;P1;durP2;ratioP2;P2;SDS_P1;SDS_P2;PMS_P1;PMS_P2;Temp;Humidity;BMP_temperature;BMP_pressure;BME280_temperature;BME280_humidity;BME280_pressure;Samples;Min_cycle;Max_cycle;Signal;HPM_P1;HPM_P2
2023/09/04 00:01:08;;;;;;;4.90;3.53;;;12.40;99.90;;;;;;5015122;28;20033;-64
2023/09/04 00:03:34;;;;;;;5.63;3.50;;;12.30;99.90;;;;;;5016509;28;20329;-63
2023/09/04 00:05:59;;;;;;;5.13;4.20;;;12.30;99.90;;;;;;5013864;28;20029;-64
2023/09/04 00:08:25;;;;;;;5.82;3.70;;;12.30;99.90;;;;;;5017021;28;20438;-63
2023/09/04 00:10:50;;;;;;;6.07;4.10;;;12.20;99.90;;;;;;5008538;28;20102;-64
2023/09/04 00:13:16;;;;;;;6.13;3.58;;;12.20;99.90;;;;;;5007258;28;20034;-63
2023/09/04 00:15:43;;;;;;;4.50;3.63;;;12.20;99.90;;;;;;5018025;28;20036;-64
2023/09/04 00:18:08;;;;;;;6.68;4.50;;;12.20;99.90;;;;;;5019829;28;20675;-62
2023/09/04 00:20:34;;;;;;;5.70;4.13;;;12.10;99.90;;;;;;5017507;28;20033;-64
2023/09/04 00:22:59;;;;;;;7.68;4.20;;;12.10;99.90;;;;;;5029970;28;20033;-64
2023/09/04 00:25:25;;;;;;;4.22;3.53;;;12.10;99.90;;;;;;5018447;28;20033;-64
2023/09/04 00:27:50;;;;;;;4.45;3.65;;;12.00;99.90;;;;;;5019560;28;20535;-64
2023/09/04 00:30:16;;;;;;;6.07;4.07;;;12.00;99.90;;;;;;5021131;28;20036;-64
2023/09/04 00:32:41;;;;;;;7.05;4.18;;;12.00;99.90;;;;;;5018109;28;20360;-63
2023/09/04 00:35:09;;;;;;;5.38;3.97;;;12.00;99.90;;;;;;5021507;28;20125;-64
2023/09/04 00:37:34;;;;;;;5.88;4.05;;;11.90;99.90;;;;;;5020452;28;20026;-63
2023/09/04 00:40:00;;;;;;;7.22;4.72;;;11.90;99.90;;;;;;5018669;28;20091;-63
2023/09/04 00:42:29;;;;;;;5.80;3.83;;;11.90;99.90;;;;;;5020289;28;20033;-64
2023/09/04 00:44:55;;;;;;;5.95;3.83;;;11.90;99.90;;;;;;5019571;28;20025;-64
2023/09/04 00:47:23;;;;;;;5.43;4.10;;;11.80;99.90;;;;;;5019250;28;20092;-64
2023/09/04 00:49:51;;;;;;;6.68;3.85;;;11.80;99.90;;;;;;5019379;28;20029;-64
2023/09/04 00:52:17;;;;;;;5.63;4.15;;;11.80;99.90;;;;;;5019203;28;20087;-64
2023/09/04 00:54:42;;;;;;;5.97;4.30;;;11.70;99.90;;;;;;5019475;28;20461;-64
2023/09/04 00:57:10;;;;;;;6.45;4.32;;;11.70;99.90;;;;;;5025360;28;20072;-64
2023/09/04 00:59:36;;;;;;;5.80;4.07;;;11.70;99.90;;;;;;5030647;28;20053;-64
2023/09/04 01:02:02;;;;;;;8.55;3.67;;;11.70;99.90;;;;;;5020976;28;20470;-65
2023/09/04 01:04:27;;;;;;;5.30;3.80;;;11.70;99.90;;;;;;5027505;28;20115;-64
2023/09/04 01:06:53;;;;;;;8.10;3.92;;;11.60;99.90;;;;;;5019262;28;20100;-63
2023/09/04 01:09:20;;;;;;;4.88;3.67;;;11.70;99.90;;;;;;5019244;28;20543;-63
2023/09/04 01:11:55;;;;;;;5.40;4.13;;;11.60;99.90;;;;;;5020961;28;20056;-63
2023/09/04 01:14:23;;;;;;;5.22;3.72;;;11.60;99.90;;;;;;5015013;28;20030;-63
2023/09/04 01:16:49;;;;;;;5.93;3.40;;;11.50;99.90;;;;;;5019354;28;20045;-63
2023/09/04 01:19:17;;;;;;;5.90;3.65;;;11.50;99.90;;;;;;5024769;28;20075;-63
2023/09/04 01:21:42;;;;;;;6.25;3.97;;;11.50;99.90;;;;;;5023161;28;20025;-63
2023/09/04 01:24:09;;;;;;;6.15;3.58;;;11.40;99.90;;;;;;5018617;28;20038;-64
2023/09/04 01:26:40;;;;;;;4.40;3.40;;;11.50;99.90;;;;;;5019306;28;20367;-63
2023/09/04 01:29:32;;;;;;;7.47;3.55;;;11.40;99.90;;;;;;5023879;28;20025;-63
2023/09/04 01:32:01;;;;;;;4.60;3.50;;;11.40;99.90;;;;;;5018343;28;20030;-63
2023/09/04 01:34:32;;;;;;;4.40;3.45;;;11.40;99.90;;;;;;5021199;28;20397;-63
2023/09/04 01:36:58;;;;;;;5.25;3.22;;;11.40;99.90;;;;;;5023119;28;20037;-63
2023/09/04 01:39:26;;;;;;;4.10;3.13;;;11.30;99.90;;;;;;5021003;28;20485;-63
2023/09/04 01:41:52;;;;;;;3.58;3.10;;;11.30;99.90;;;;;;5028405;28;20021;-63
2023/09/04 01:44:19;;;;;;;4.97;2.58;;;11.30;99.90;;;;;;5022358;28;20543;-63
2023/09/04 01:46:44;;;;;;;3.92;3.13;;;11.30;99.90;;;;;;5022235;28;20037;-64
2023/09/04 01:49:10;;;;;;;4.70;3.53;;;11.20;99.90;;;;;;5022408;28;20026;-63
2023/09/04 01:51:35;;;;;;;6.40;3.42;;;11.20;99.90;;;;;;5019008;28;20498;-65
2023/09/04 01:54:01;;;;;;;7.65;4.18;;;11.20;99.90;;;;;;5019283;28;20065;-63
2023/09/04 01:56:26;;;;;;;6.68;3.85;;;11.20;99.90;;;;;;5027752;28;20142;-64
2023/09/04 01:58:51;;;;;;;5.72;3.47;;;11.20;99.90;;;;;;5025395;28;20074;-64
2023/09/04 02:01:17;;;;;;;4.57;3.38;;;11.20;99.90;;;;;;5018822;28;20512;-63
2023/09/04 02:03:44;;;;;;;5.75;3.50;;;11.10;99.90;;;;;;5024146;28;20465;-64
2023/09/04 02:06:10;;;;;;;4.18;3.08;;;11.10;99.90;;;;;;5021915;28;20026;-63
2023/09/04 02:08:36;;;;;;;3.38;2.97;;;11.10;99.90;;;;;;5020245;28;20057;-64
2023/09/04 02:11:01;;;;;;;4.78;3.00;;;11.00;99.90;;;;;;5021844;28;20120;-64
2023/09/04 02:13:27;;;;;;;3.92;3.00;;;11.00;99.90;;;;;;5019887;28;20025;-57
2023/09/04 02:15:52;;;;;;;6.70;3.10;;;11.00;99.90;;;;;;5024160;28;20697;-58
2023/09/04 02:18:18;;;;;;;3.28;2.55;;;11.00;99.90;;;;;;5023084;28;20034;-59
2023/09/04 02:20:46;;;;;;;3.83;3.13;;;11.00;99.90;;;;;;5023861;28;20099;-57
2023/09/04 02:23:12;;;;;;;4.00;2.70;;;11.00;99.90;;;;;;5022687;28;20497;-65
2023/09/04 02:25:37;;;;;;;4.05;2.67;;;11.00;99.90;;;;;;5021430;28;20028;-65
2023/09/04 02:28:03;;;;;;;4.00;3.00;;;10.90;99.90;;;;;;5021557;28;20481;-65
2023/09/04 02:30:29;;;;;;;4.25;2.78;;;10.90;99.90;;;;;;5022912;28;20033;-65
2023/09/04 02:32:58;;;;;;;4.65;2.80;;;10.90;99.90;;;;;;5021440;28;20489;-65
2023/09/04 02:35:24;;;;;;;5.47;3.40;;;10.90;99.90;;;;;;5020705;28;20124;-65
2023/09/04 02:37:50;;;;;;;5.10;3.15;;;10.90;99.90;;;;;;5022108;28;20544;-65
2023/09/04 02:40:15;;;;;;;3.15;2.85;;;10.90;99.90;;;;;;5021285;28;20032;-65
2023/09/04 02:42:40;;;;;;;5.00;3.38;;;10.80;99.90;;;;;;5021285;28;20092;-65
2023/09/04 02:45:08;;;;;;;6.93;3.35;;;10.80;99.90;;;;;;5023302;28;20370;-66
2023/09/04 02:47:36;;;;;;;5.40;3.10;;;10.80;99.90;;;;;;5023193;28;20083;-65
2023/09/04 02:50:02;;;;;;;7.20;3.95;;;10.80;99.90;;;;;;5021246;28;20018;-66
2023/09/04 02:52:29;;;;;;;6.32;3.85;;;10.80;99.90;;;;;;5021130;28;20464;-65
2023/09/04 02:54:56;;;;;;;4.45;3.20;;;10.80;99.90;;;;;;5021065;28;20017;-65
2023/09/04 02:57:22;;;;;;;3.95;3.35;;;10.70;99.90;;;;;;5023780;28;20029;-65
2023/09/04 02:59:48;;;;;;;4.40;3.40;;;10.70;99.90;;;;;;5021104;28;20040;-65
2023/09/04 03:02:14;;;;;;;4.90;3.45;;;10.70;99.90;;;;;;5021119;28;20112;-65
2023/09/04 03:04:40;;;;;;;5.03;2.95;;;10.70;99.90;;;;;;5020808;28;20021;-65
2023/09/04 03:07:05;;;;;;;4.63;3.03;;;10.70;99.90;;;;;;5018976;28;20053;-65
2023/09/04 03:09:31;;;;;;;3.45;2.83;;;10.70;99.90;;;;;;5020034;28;20512;-65
2023/09/04 03:11:58;;;;;;;5.68;3.78;;;10.70;99.90;;;;;;5021525;28;20516;-65
2023/09/04 03:14:23;;;;;;;4.03;3.33;;;10.60;99.90;;;;;;5013234;28;20037;-66
2023/09/04 03:16:49;;;;;;;6.70;3.45;;;10.70;99.90;;;;;;5022542;28;20021;-65
2023/09/04 03:19:14;;;;;;;5.25;3.03;;;10.60;99.90;;;;;;5017515;28;20545;-65
2023/09/04 03:21:40;;;;;;;5.47;3.20;;;10.60;99.90;;;;;;5022652;28;20030;-65
2023/09/04 03:24:06;;;;;;;4.22;3.20;;;10.60;99.90;;;;;;5023433;28;20393;-65
2023/09/04 03:26:31;;;;;;;5.38;3.90;;;10.60;99.90;;;;;;5023506;28;20072;-65
2023/09/04 03:28:57;;;;;;;3.50;3.08;;;10.60;99.90;;;;;;5022979;28;20103;-65
2023/09/04 03:31:22;;;;;;;6.05;3.30;;;10.60;99.90;;;;;;5018172;28;20048;-65
2023/09/04 03:33:47;;;;;;;6.80;3.58;;;10.50;99.90;;;;;;5019228;28;20041;-65
2023/09/04 03:36:13;;;;;;;4.68;3.13;;;10.50;99.90;;;;;;5018213;28;20029;-65
2023/09/04 03:38:39;;;;;;;4.13;3.20;;;10.50;99.90;;;;;;5021651;28;20038;-66
2023/09/04 03:41:05;;;;;;;3.90;2.35;;;10.50;99.90;;;;;;5021706;28;20026;-65
2023/09/04 03:43:31;;;;;;;4.78;2.35;;;10.50;99.90;;;;;;5019407;28;20060;-65
2023/09/04 03:45:56;;;;;;;4.20;2.72;;;10.50;99.90;;;;;;5023723;28;20079;-65
2023/09/04 03:48:22;;;;;;;5.50;3.05;;;10.50;99.90;;;;;;5025324;28;20545;-65
2023/09/04 03:50:47;;;;;;;5.22;2.58;;;10.50;99.90;;;;;;5020168;28;20099;-66
2023/09/04 03:53:13;;;;;;;4.25;3.05;;;10.50;99.90;;;;;;5024528;28;20030;-65
2023/09/04 03:55:39;;;;;;;4.18;3.20;;;10.60;99.90;;;;;;5024306;28;20112;-66
2023/09/04 03:58:04;;;;;;;4.10;2.78;;;10.60;99.90;;;;;;5018672;28;20013;-65
2023/09/04 04:00:30;;;;;;;3.58;3.00;;;10.60;99.90;;;;;;5018991;28;20037;-65
2023/09/04 04:02:57;;;;;;;3.65;2.60;;;10.60;99.90;;;;;;5026586;28;20014;-66
2023/09/04 04:05:23;;;;;;;4.80;3.20;;;10.60;99.90;;;;;;5024248;28;20045;-65
2023/09/04 04:07:49;;;;;;;7.03;3.80;;;10.60;99.90;;;;;;5020058;28;20489;-65
2023/09/04 04:10:15;;;;;;;6.47;3.10;;;10.60;99.90;;;;;;5020375;28;20037;-65
2023/09/04 04:12:41;;;;;;;4.40;3.30;;;10.60;99.90;;;;;;5015714;28;20026;-65
2023/09/04 04:15:08;;;;;;;4.07;2.75;;;10.50;99.90;;;;;;5014476;28;20489;-64
2023/09/04 04:17:37;;;;;;;6.57;3.00;;;10.50;99.90;;;;;;5021363;28;20024;-65
2023/09/04 04:20:07;;;;;;;4.70;3.10;;;10.50;99.90;;;;;;5019835;28;20067;-64
2023/09/04 04:22:33;;;;;;;4.85;2.67;;;10.50;99.90;;;;;;5024397;28;20021;-65
2023/09/04 04:24:58;;;;;;;5.13;3.15;;;10.60;99.90;;;;;;5023478;28;20026;-65
2023/09/04 04:27:24;;;;;;;6.78;2.67;;;10.60;99.90;;;;;;5021212;28;20440;-65
2023/09/04 04:29:52;;;;;;;6.30;3.33;;;10.70;99.90;;;;;;5019928;28;20097;-65
2023/09/04 04:32:17;;;;;;;7.85;3.08;;;10.80;99.90;;;;;;5023283;28;20449;-63
2023/09/04 04:34:43;;;;;;;4.32;2.90;;;10.80;99.90;;;;;;5021206;28;20029;-65
2023/09/04 04:37:08;;;;;;;3.42;2.78;;;10.90;99.90;;;;;;5024738;28;20033;-64
2023/09/04 04:39:34;;;;;;;5.70;3.50;;;11.00;99.90;;;;;;5017933;28;20025;-64
2023/09/04 04:42:00;;;;;;;5.03;3.20;;;11.10;99.90;;;;;;5023930;28;20099;-65
2023/09/04 04:44:25;;;;;;;6.65;3.28;;;11.20;99.90;;;;;;5020685;28;20030;-64
2023/09/04 04:46:51;;;;;;;4.05;2.97;;;11.30;99.90;;;;;;5021015;28;20059;-65
2023/09/04 04:49:21;;;;;;;5.00;2.95;;;11.40;99.90;;;;;;5014517;28;20034;-65
2023/09/04 04:51:47;;;;;;;4.38;2.85;;;11.50;99.90;;;;;;5017403;28;20026;-65
2023/09/04 04:54:12;;;;;;;4.30;3.53;;;11.60;99.90;;;;;;5022345;28;20094;-65
2023/09/04 04:56:39;;;;;;;3.63;3.03;;;11.70;99.90;;;;;;5018320;28;20421;-66
2023/09/04 04:59:05;;;;;;;4.78;2.92;;;11.80;99.90;;;;;;5027843;28;20052;-66
2023/09/04 05:01:30;;;;;;;4.93;3.50;;;11.90;99.90;;;;;;5022680;28;20509;-64
2023/09/04 05:03:56;;;;;;;7.05;3.10;;;12.00;99.90;;;;;;5021340;28;20032;-65
2023/09/04 05:06:22;;;;;;;4.40;2.85;;;12.20;99.90;;;;;;5022006;28;20489;-65
2023/09/04 05:08:47;;;;;;;6.05;3.05;;;12.30;99.90;;;;;;5022680;28;20093;-65
2023/09/04 05:11:12;;;;;;;3.67;2.78;;;12.50;99.90;;;;;;5016595;28;20045;-65
2023/09/04 05:13:38;;;;;;;5.18;3.08;;;12.60;99.90;;;;;;5018915;28;20436;-64
2023/09/04 05:16:05;;;;;;;3.97;2.70;;;12.80;99.90;;;;;;5024888;28;20036;-66
2023/09/04 05:18:31;;;;;;;4.35;2.28;;;12.90;99.90;;;;;;5021536;28;20077;-65
2023/09/04 05:20:57;;;;;;;3.42;2.70;;;13.00;99.90;;;;;;5022954;28;20031;-65
2023/09/04 05:23:22;;;;;;;5.95;3.67;;;13.10;99.90;;;;;;5022600;28;20110;-66
2023/09/04 05:25:49;;;;;;;4.32;2.80;;;13.40;99.90;;;;;;5022582;28;20126;-66
2023/09/04 05:28:14;;;;;;;5.78;3.05;;;13.80;99.90;;;;;;5022834;28;20025;-64
2023/09/04 05:30:40;;;;;;;4.10;2.85;;;14.60;99.90;;;;;;5024740;28;20074;-67
2023/09/04 05:33:06;;;;;;;3.75;2.70;;;15.50;99.90;;;;;;5024170;28;20473;-66
2023/09/04 05:35:31;;;;;;;4.32;2.40;;;16.50;99.90;;;;;;5025456;28;20044;-66
2023/09/04 05:37:58;;;;;;;3.38;2.47;;;17.60;98.50;;;;;;5024085;28;20516;-67
2023/09/04 05:40:24;;;;;;;5.78;2.92;;;18.80;95.10;;;;;;5019704;28;20037;-66
2023/09/04 05:42:50;;;;;;;4.82;2.55;;;19.70;92.00;;;;;;5025609;28;20400;-66
2023/09/04 05:45:16;;;;;;;3.78;2.60;;;20.60;90.40;;;;;;5019525;28;20072;-66
2023/09/04 05:47:42;;;;;;;4.20;2.53;;;21.50;87.10;;;;;;5023810;28;20029;-66
2023/09/04 05:50:08;;;;;;;4.38;2.50;;;22.40;85.00;;;;;;5024445;28;20033;-65
2023/09/04 05:52:33;;;;;;;4.13;2.70;;;23.20;81.00;;;;;;5018488;28;20490;-65
2023/09/04 05:54:59;;;;;;;3.22;2.40;;;23.80;78.50;;;;;;5021444;28;20068;-65
2023/09/04 05:57:24;;;;;;;3.05;2.75;;;24.40;76.20;;;;;;5024543;28;20065;-65
2023/09/04 05:59:50;;;;;;;2.80;2.13;;;24.80;73.20;;;;;;5020408;28;20037;-64
2023/09/04 06:02:16;;;;;;;3.20;2.55;;;25.40;72.00;;;;;;5019849;28;20076;-64
2023/09/04 06:04:41;;;;;;;4.35;2.78;;;26.00;68.90;;;;;;5027780;28;20525;-65
2023/09/04 06:07:08;;;;;;;3.65;2.50;;;26.40;68.00;;;;;;5018099;28;20337;-64
2023/09/04 06:09:33;;;;;;;3.15;2.53;;;26.90;64.40;;;;;;5023079;28;20551;-64
2023/09/04 06:11:59;;;;;;;2.65;2.38;;;27.30;62.60;;;;;;5022325;28;20087;-65
2023/09/04 06:14:24;;;;;;;6.15;2.50;;;27.70;61.80;;;;;;5016958;28;20100;-64
2023/09/04 06:16:50;;;;;;;2.80;2.13;;;28.00;58.90;;;;;;5020995;28;20018;-64
2023/09/04 06:19:15;;;;;;;5.75;2.67;;;28.40;57.60;;;;;;5027093;28;20078;-64
2023/09/04 06:21:40;;;;;;;5.88;2.70;;;28.70;55.60;;;;;;5017935;28;20029;-64
2023/09/04 06:24:06;;;;;;;4.93;2.45;;;29.20;54.00;;;;;;5021943;28;20025;-57
2023/09/04 06:26:31;;;;;;;3.70;2.25;;;29.50;52.40;;;;;;5021574;28;20393;-57
2023/09/04 06:28:57;;;;;;;5.63;2.30;;;29.80;51.20;;;;;;5021481;28;20444;-57
2023/09/04 06:31:23;;;;;;;2.85;2.10;;;30.10;49.70;;;;;;5018236;28;20038;-59
2023/09/04 06:33:49;;;;;;;4.55;2.17;;;30.50;47.90;;;;;;5015845;28;20026;-57
2023/09/04 06:36:14;;;;;;;3.42;2.40;;;30.70;46.00;;;;;;5022050;28;20465;-56
2023/09/04 06:38:40;;;;;;;5.32;2.33;;;30.80;44.00;;;;;;5018481;28;20018;-58
2023/09/04 06:41:05;;;;;;;3.10;2.47;;;31.10;43.00;;;;;;5022241;28;20032;-54
2023/09/04 06:43:31;;;;;;;5.68;2.97;;;31.40;42.00;;;;;;5021142;28;20083;-56
2023/09/04 06:45:58;;;;;;;4.05;2.63;;;31.60;40.30;;;;;;5021154;28;20026;-57
2023/09/04 06:48:24;;;;;;;3.65;2.53;;;31.90;39.00;;;;;;5018940;28;20018;-57
2023/09/04 06:50:52;;;;;;;2.65;1.92;;;32.20;37.70;;;;;;5021664;28;20033;-57
2023/09/04 06:53:18;;;;;;;4.88;2.50;;;32.50;35.30;;;;;;5022991;28;20977;-57
2023/09/04 06:55:46;;;;;;;3.13;2.00;;;32.80;35.70;;;;;;5020402;28;20100;-55
2023/09/04 06:58:12;;;;;;;2.47;1.90;;;33.00;33.90;;;;;;5022406;28;20326;-56
2023/09/04 07:00:37;;;;;;;5.63;2.13;;;33.10;32.90;;;;;;5020973;28;20044;-56
2023/09/04 07:03:06;;;;;;;3.05;2.20;;;33.40;31.60;;;;;;5020821;28;20025;-57
2023/09/04 07:05:32;;;;;;;2.78;2.05;;;33.60;30.40;;;;;;5020964;28;20084;-58
2023/09/04 07:07:58;;;;;;;2.47;2.00;;;33.80;29.50;;;;;;5022678;28;20517;-57
2023/09/04 07:10:23;;;;;;;2.15;1.88;;;33.90;28.50;;;;;;5020599;28;20121;-57
2023/09/04 07:12:51;;;;;;;2.95;1.80;;;34.10;27.40;;;;;;5020763;28;20053;-55
2023/09/04 07:15:16;;;;;;;5.10;1.95;;;34.40;26.60;;;;;;5017069;28;20036;-56
2023/09/04 07:17:42;;;;;;;3.47;1.92;;;34.40;26.00;;;;;;5018079;28;20030;-57
2023/09/04 07:20:08;;;;;;;3.30;2.00;;;34.50;25.60;;;;;;5022743;28;20041;-57
2023/09/04 07:22:33;;;;;;;2.33;1.75;;;34.60;25.20;;;;;;5019777;28;20041;-56
2023/09/04 07:24:59;;;;;;;1.60;1.50;;;34.80;24.80;;;;;;5025590;28;20074;-58
2023/09/04 07:27:27;;;;;;;2.83;1.70;;;34.80;24.10;;;;;;5024350;28;20040;-55
2023/09/04 07:29:53;;;;;;;2.78;1.65;;;34.90;23.60;;;;;;5020640;28;20021;-56
2023/09/04 07:32:18;;;;;;;2.50;1.52;;;34.70;23.30;;;;;;5017304;28;20095;-58
2023/09/04 07:34:44;;;;;;;1.55;1.42;;;34.50;22.80;;;;;;5027800;28;20017;-56
2023/09/04 07:37:09;;;;;;;2.58;1.50;;;34.30;22.80;;;;;;5017103;28;20033;-54
2023/09/04 07:39:35;;;;;;;2.50;1.55;;;34.00;22.50;;;;;;5022216;28;20295;-57
2023/09/04 07:42:01;;;;;;;1.73;1.27;;;34.00;22.60;;;;;;5023195;28;20098;-56
2023/09/04 07:44:26;;;;;;;2.97;1.60;;;33.90;22.30;;;;;;5023563;28;20086;-56
2023/09/04 07:46:52;;;;;;;2.45;1.73;;;33.80;22.20;;;;;;5022569;28;20053;-55
2023/09/04 07:49:17;;;;;;;2.53;1.60;;;33.60;21.80;;;;;;5019814;28;20029;-56
2023/09/04 07:51:43;;;;;;;1.88;1.60;;;33.50;21.90;;;;;;5021783;28;20033;-56
2023/09/04 07:54:11;;;;;;;2.08;1.52;;;33.40;21.90;;;;;;5017825;28;20060;-56
2023/09/04 07:56:37;;;;;;;2.47;1.52;;;33.40;22.00;;;;;;5023036;28;20020;-54
2023/09/04 07:59:03;;;;;;;3.00;1.50;;;33.10;21.90;;;;;;5020730;28;20512;-57
2023/09/04 08:01:30;;;;;;;1.48;1.30;;;32.90;21.90;;;;;;5016292;28;20120;-57
2023/09/04 08:03:56;;;;;;;2.50;1.48;;;32.70;21.80;;;;;;5028689;28;20485;-56
2023/09/04 08:06:21;;;;;;;1.50;1.30;;;32.60;21.80;;;;;;5019635;28;20040;-56
2023/09/04 08:08:47;;;;;;;3.65;1.63;;;32.40;21.80;;;;;;5021657;28;20393;-56
2023/09/04 08:11:13;;;;;;;2.70;1.42;;;32.30;22.00;;;;;;5024405;28;20069;-54
2023/09/04 08:13:39;;;;;;;1.55;1.30;;;32.10;22.00;;;;;;5014830;28;20054;-56
2023/09/04 08:16:04;;;;;;;2.00;1.33;;;32.00;20.60;;;;;;5020862;28;20059;-58
2023/09/04 08:18:30;;;;;;;1.35;1.20;;;31.80;22.30;;;;;;5017331;28;20466;-57
2023/09/04 08:20:55;;;;;;;3.05;1.60;;;31.70;22.60;;;;;;5022829;28;20042;-56
2023/09/04 08:23:20;;;;;;;1.60;1.48;;;31.60;22.70;;;;;;5016730;28;20272;-56
2023/09/04 08:25:46;;;;;;;1.80;1.55;;;31.60;22.90;;;;;;5021409;28;20434;-58
2023/09/04 08:28:11;;;;;;;3.33;1.50;;;31.40;22.60;;;;;;5022409;28;20078;-57
2023/09/04 08:30:37;;;;;;;1.65;1.48;;;31.20;22.30;;;;;;5016275;28;20574;-57
2023/09/04 08:33:03;;;;;;;1.98;1.67;;;30.90;22.40;;;;;;5022117;28;20390;-57
2023/09/04 08:35:29;;;;;;;2.58;1.13;;;30.80;22.60;;;;;;5023158;28;20021;-56
2023/09/04 08:37:56;;;;;;;1.60;1.45;;;30.80;22.60;;;;;;5026157;28;20514;-58
2023/09/04 08:40:22;;;;;;;2.42;1.55;;;30.80;22.50;;;;;;5025835;28;20052;-56
2023/09/04 08:42:50;;;;;;;2.20;1.60;;;30.70;22.60;;;;;;5025278;28;20505;-56
2023/09/04 08:45:17;;;;;;;2.20;1.67;;;30.70;22.50;;;;;;5021470;28;20025;-56
2023/09/04 08:47:43;;;;;;;2.35;1.70;;;30.70;22.40;;;;;;5023426;28;20023;-56
2023/09/04 08:50:10;;;;;;;3.72;1.45;;;30.60;22.20;;;;;;5026034;28;20044;-57
2023/09/04 08:52:37;;;;;;;4.13;1.42;;;30.60;22.30;;;;;;5023355;28;20489;-57
2023/09/04 08:55:06;;;;;;;1.40;1.30;;;30.50;22.00;;;;;;5023452;28;20021;-58
2023/09/04 08:57:33;;;;;;;3.05;1.70;;;30.40;22.00;;;;;;5027777;28;20040;-56
2023/09/04 08:59:59;;;;;;;3.55;1.55;;;30.30;22.10;;;;;;5027466;28;20021;-56
2023/09/04 09:02:25;;;;;;;3.38;1.77;;;30.30;22.20;;;;;;5023164;28;20370;-57
2023/09/04 09:04:51;;;;;;;2.15;1.60;;;30.40;22.10;;;;;;5027934;28;20025;-57
2023/09/04 09:07:19;;;;;;;3.67;1.58;;;30.40;22.40;;;;;;5023105;28;20040;-58
2023/09/04 09:09:49;;;;;;;4.22;1.77;;;30.50;22.10;;;;;;5021858;28;20025;-58
2023/09/04 09:12:14;;;;;;;5.32;2.08;;;30.50;21.60;;;;;;5019169;28;20041;-57
2023/09/04 09:14:40;;;;;;;2.47;2.15;;;30.30;21.40;;;;;;5020207;28;20014;-57
2023/09/04 09:17:14;;;;;;;2.30;1.90;;;30.00;21.30;;;;;;5018193;28;20033;-58
2023/09/04 09:19:41;;;;;;;2.25;1.40;;;30.00;21.50;;;;;;5025665;28;20028;-57
2023/09/04 09:22:14;;;;;;;2.00;1.73;;;30.00;21.20;;;;;;5021666;28;20384;-57
2023/09/04 09:25:00;;;;;;;2.42;1.75;;;30.10;21.30;;;;;;5024845;28;20413;-57
2023/09/04 09:27:29;;;;;;;;;;;29.90;20.90;;;;;;5017530;28;20375;-58
2023/09/04 09:29:59;;;;;;;3.13;1.67;;;29.80;21.30;;;;;;5024891;28;20399;-56
2023/09/04 09:32:28;;;;;;;2.03;1.63;;;29.80;21.30;;;;;;5020408;28;20421;-58
2023/09/04 09:34:56;;;;;;;1.58;1.40;;;29.80;21.10;;;;;;5017699;28;20434;-57
2023/09/04 09:37:24;;;;;;;2.80;1.70;;;29.90;20.80;;;;;;5025865;28;20112;-58
2023/09/04 09:39:50;;;;;;;2.65;2.00;;;30.00;20.60;;;;;;5022330;28;20021;-54
2023/09/04 09:42:15;;;;;;;2.53;1.83;;;30.10;20.30;;;;;;5017866;28;20248;-54
2023/09/04 09:44:41;;;;;;;2.85;1.85;;;30.10;19.80;;;;;;5021249;28;20025;-57
2023/09/04 09:47:10;;;;;;;1.65;1.55;;;29.10;20.40;;;;;;5019123;28;20062;-57
2023/09/04 09:49:37;;;;;;;4.40;2.00;;;28.90;21.10;;;;;;5024465;28;20017;-57
2023/09/04 09:52:09;;;;;;;3.53;1.80;;;28.50;21.40;;;;;;5022739;28;20021;-57
2023/09/04 09:54:36;;;;;;;2.88;2.20;;;28.50;21.40;;;;;;5024731;28;20097;-57
2023/09/04 09:57:09;;;;;;;2.30;2.10;;;28.20;22.20;;;;;;5022396;28;20023;-56
2023/09/04 09:59:48;;;;;;;2.42;1.90;;;28.20;22.30;;;;;;5024176;28;20025;-57
2023/09/04 10:02:21;;;;;;;3.10;2.03;;;28.40;21.70;;;;;;5023577;28;20075;-57
2023/09/04 10:04:47;;;;;;;3.28;2.13;;;28.70;21.60;;;;;;5015871;28;20018;-57
2023/09/04 10:07:20;;;;;;;2.63;1.80;;;28.90;21.10;;;;;;5025483;28;20506;-57
2023/09/04 10:09:48;;;;;;;2.80;1.88;;;28.90;21.00;;;;;;5020934;28;20104;-55
2023/09/04 10:12:33;;;;;;;3.28;2.70;;;28.60;21.00;;;;;;5026652;28;20091;-57
2023/09/04 10:15:01;;;;;;;4.72;2.30;;;28.30;21.70;;;;;;5017354;28;20061;-58
2023/09/04 10:17:35;;;;;;;1.90;1.80;;;28.10;21.40;;;;;;5021625;28;20087;-55
2023/09/04 10:20:05;;;;;;;2.13;1.73;;;27.80;22.30;;;;;;5021771;28;20392;-55
2023/09/04 10:22:37;;;;;;;3.28;1.70;;;27.80;21.90;;;;;;5017819;28;20112;-58
2023/09/04 10:25:23;;;;;;;3.38;2.25;;;27.70;22.00;;;;;;5026045;28;20028;-58
2023/09/04 10:28:02;;;;;;;4.53;2.22;;;27.70;22.10;;;;;;5016404;28;20021;-56
2023/09/04 10:30:34;;;;;;;5.15;2.78;;;27.10;23.60;;;;;;5027122;28;20047;-57
2023/09/04 10:33:00;;;;;;;3.45;2.65;;;26.70;24.20;;;;;;5023527;28;20113;-58
2023/09/04 10:35:27;;;;;;;3.78;2.35;;;26.20;24.30;;;;;;5019090;28;20025;-56
2023/09/04 10:37:52;;;;;;;2.25;1.83;;;26.00;24.20;;;;;;5023466;28;20040;-57
2023/09/04 10:40:19;;;;;;;2.50;2.30;;;26.10;24.20;;;;;;5021839;28;20036;-54
2023/09/04 10:42:45;;;;;;;2.85;1.98;;;26.10;24.50;;;;;;5019364;28;20109;-58
2023/09/04 10:45:12;;;;;;;3.55;2.22;;;26.20;24.30;;;;;;5021249;28;20029;-56
2023/09/04 10:47:46;;;;;;;1.95;1.67;;;26.20;24.40;;;;;;5019718;28;20027;-57
2023/09/04 10:50:38;;;;;;;2.28;1.75;;;26.20;24.80;;;;;;5023823;28;20574;-56
2023/09/04 10:53:06;;;;;;;2.47;1.70;;;26.20;25.80;;;;;;5019209;28;20056;-56
2023/09/04 10:55:35;;;;;;;2.58;1.67;;;26.20;24.00;;;;;;5021112;28;20035;-57
2023/09/04 10:58:06;;;;;;;1.92;1.73;;;26.20;24.10;;;;;;5020856;28;20095;-57
2023/09/04 11:00:40;;;;;;;2.35;1.85;;;26.10;24.60;;;;;;5014718;28;20126;-55
2023/09/04 11:03:14;;;;;;;2.40;1.60;;;26.00;24.90;;;;;;5023262;28;20539;-57
2023/09/04 11:06:01;;;;;;;1.75;1.65;;;26.00;24.80;;;;;;5020515;28;20018;-57
2023/09/04 11:08:29;;;;;;;2.75;1.60;;;25.90;25.00;;;;;;5023253;28;20028;-52
2023/09/04 11:11:05;;;;;;;2.83;2.00;;;25.80;24.50;;;;;;5017732;28;20048;-57
2023/09/04 11:13:55;;;;;;;3.13;1.90;;;25.80;24.90;;;;;;5013661;28;20060;-55
2023/09/04 11:16:20;;;;;;;3.08;2.10;;;25.60;25.30;;;;;;5019909;28;20049;-54
2023/09/04 11:18:46;;;;;;;2.35;1.95;;;25.20;25.10;;;;;;5021074;28;20086;-56
2023/09/04 11:21:14;;;;;;;4.25;1.65;;;24.80;25.20;;;;;;5017106;28;20049;-57
2023/09/04 11:23:41;;;;;;;1.73;1.63;;;24.70;25.70;;;;;;5022048;28;20693;-54
2023/09/04 11:26:07;;;;;;;1.83;1.30;;;24.80;26.00;;;;;;5026274;28;20163;-54
2023/09/04 11:28:32;;;;;;;2.33;1.60;;;24.90;26.00;;;;;;5021321;28;20521;-57
2023/09/04 11:30:59;;;;;;;2.47;1.67;;;25.00;26.30;;;;;;5023433;28;20040;-64
2023/09/04 11:33:25;;;;;;;1.65;1.50;;;25.00;25.80;;;;;;5019181;28;20033;-63
2023/09/04 11:36:03;;;;;;;3.08;2.05;;;25.00;25.70;;;;;;5019439;28;20026;-64
2023/09/04 11:38:31;;;;;;;3.25;1.85;;;24.80;26.40;;;;;;5015847;28;20021;-64
2023/09/04 11:40:57;;;;;;;2.50;1.60;;;24.70;26.30;;;;;;5019309;28;20018;-63
2023/09/04 11:43:25;;;;;;;2.22;1.60;;;24.80;26.70;;;;;;5021642;28;20109;-64
2023/09/04 11:45:57;;;;;;;1.95;1.35;;;24.80;26.60;;;;;;5025026;28;20033;-62
2023/09/04 11:48:28;;;;;;;2.00;1.65;;;24.90;26.70;;;;;;5023295;28;20076;-65
2023/09/04 11:50:54;;;;;;;2.08;1.60;;;25.00;26.60;;;;;;5020791;28;20160;-65
2023/09/04 11:53:21;;;;;;;1.75;1.38;;;25.10;26.30;;;;;;5019917;28;20490;-63
2023/09/04 11:55:47;;;;;;;2.42;1.67;;;25.10;26.60;;;;;;5020009;28;20068;-62
2023/09/04 11:58:12;;;;;;;2.63;1.38;;;25.20;26.60;;;;;;5019962;28;20425;-62
2023/09/04 12:00:40;;;;;;;2.33;1.50;;;25.20;26.60;;;;;;5018855;28;20105;-61
2023/09/04 12:03:05;;;;;;;2.55;1.60;;;25.20;26.30;;;;;;5029210;28;20109;-63
2023/09/04 12:05:32;;;;;;;2.28;1.65;;;25.00;26.20;;;;;;5019966;28;20108;-63
2023/09/04 12:07:58;;;;;;;1.80;1.40;;;25.00;26.50;;;;;;5019760;28;20390;-63
2023/09/04 12:10:24;;;;;;;2.53;1.95;;;24.90;26.30;;;;;;5023258;28;20036;-63
2023/09/04 12:12:52;;;;;;;1.75;1.52;;;24.90;26.10;;;;;;5019473;28;20033;-63
2023/09/04 12:15:34;;;;;;;1.88;1.70;;;24.90;26.40;;;;;;5016652;28;20037;-63
2023/09/04 12:18:05;;;;;;;2.13;1.40;;;24.90;27.80;;;;;;5014569;28;20524;-63
2023/09/04 12:20:38;;;;;;;3.90;1.55;;;25.00;26.80;;;;;;5024388;28;20526;-63
2023/09/04 12:23:03;;;;;;;2.38;1.80;;;25.00;26.50;;;;;;5023776;28;20246;-63
2023/09/04 12:25:37;;;;;;;3.70;1.95;;;24.90;26.50;;;;;;5019374;28;20271;-63
2023/09/04 12:28:05;;;;;;;3.08;1.58;;;24.80;27.10;;;;;;5019584;28;20500;-63
2023/09/04 12:30:34;;;;;;;1.80;1.42;;;24.70;27.30;;;;;;5021526;28;20167;-62
2023/09/04 12:33:00;;;;;;;1.98;1.48;;;24.80;27.20;;;;;;5019181;28;20033;-63
2023/09/04 12:35:25;;;;;;;2.25;1.42;;;24.90;26.90;;;;;;5019345;28;20104;-63
2023/09/04 12:37:52;;;;;;;1.95;1.42;;;24.90;26.90;;;;;;5019267;28;20034;-62
2023/09/04 12:40:19;;;;;;;2.47;1.80;;;24.90;26.90;;;;;;5025299;28;20028;-63
2023/09/04 12:42:44;;;;;;;2.33;1.80;;;24.80;26.70;;;;;;5019514;28;20079;-63
2023/09/04 12:45:10;;;;;;;2.10;1.50;;;24.70;27.40;;;;;;5015978;28;20026;-63
2023/09/04 12:47:36;;;;;;;1.38;1.27;;;24.60;27.40;;;;;;5021805;28;20341;-62